Time;durP1;ratioP1;P1;durP2;ratioP2;P2;SDS_P1;SDS_P2;PMS_P1;PMS_P2;Temp;Humidity;BMP_temperature;BMP_pressure;BME280_temperature;BME280_humidity;BME280_pressure;Samples;Min_cycle;Max_cycle;Signal;HPM_P1;HPM_P2
2022/02/19 09:02:11;;;;;;;10.38;2.00;;;3.50;91.10;;;;;;5070008;28;20438;-50
2022/02/19 09:04:38;;;;;;;16.38;2.25;;;3.60;90.80;;;;;;5050577;28;20518;-52
2022/02/19 09:07:05;;;;;;;13.70;2.42;;;3.80;90.80;;;;;;5050229;28;20098;-51
2022/02/19 09:09:36;;;;;;;13.57;2.08;;;3.90;90.60;;;;;;5051278;28;20033;-55
2022/02/19 09:12:03;;;;;;;10.75;2.00;;;4.10;90.40;;;;;;5050364;28;20073;-49
2022/02/19 09:14:30;;;;;;;15.15;2.08;;;4.30;90.10;;;;;;5049957;28;20471;-52
2022/02/19 09:16:56;;;;;;;10.73;2.97;;;4.50;89.90;;;;;;5055314;28;20045;-49
2022/02/19 09:19:24;;;;;;;12.52;1.83;;;4.60;89.70;;;;;;5048597;28;20052;-50
2022/02/19 09:21:50;;;;;;;14.68;2.15;;;4.80;88.60;;;;;;5049938;28;20491;-56
2022/02/19 09:24:17;;;;;;;11.88;2.90;;;5.00;88.70;;;;;;5054240;28;20360;-57
2022/02/19 09:26:44;;;;;;;11.93;1.90;;;5.10;86.90;;;;;;5048542;28;20076;-52
2022/02/19 09:29:10;;;;;;;11.10;2.88;;;5.20;87.90;;;;;;5049731;28;20045;-50
2022/02/19 09:31:38;;;;;;;7.80;1.90;;;5.30;86.50;;;;;;5049702;28;20068;-50
2022/02/19 09:34:04;;;;;;;10.23;2.15;;;5.40;86.40;;;;;;5049581;28;20056;-50
2022/02/19 09:36:31;;;;;;;11.57;2.67;;;5.50;86.90;;;;;;5049577;28;20045;-52
2022/02/19 09:38:58;;;;;;;12.10;1.88;;;5.50;86.20;;;;;;5049598;28;20044;-52
2022/02/19 09:41:25;;;;;;;9.77;1.67;;;5.50;85.60;;;;;;5050860;28;20041;-56
2022/02/19 09:43:52;;;;;;;7.75;1.63;;;5.60;85.50;;;;;;5051146;28;20033;-54
2022/02/19 09:46:18;;;;;;;9.85;1.70;;;5.70;85.90;;;;;;5048427;28;20065;-53
2022/02/19 09:48:45;;;;;;;15.77;1.95;;;5.80;85.60;;;;;;5051388;28;20052;-53
2022/02/19 09:51:12;;;;;;;14.05;1.88;;;5.80;85.40;;;;;;5049322;28;20402;-52
2022/02/19 09:53:39;;;;;;;11.43;2.15;;;5.90;85.10;;;;;;5049250;28;20041;-52
2022/02/19 09:56:05;;;;;;;12.10;2.20;;;5.90;85.30;;;;;;5053417;28;20053;-49
2022/02/19 09:58:33;;;;;;;14.40;2.00;;;6.00;85.50;;;;;;5049245;28;20096;-53
2022/02/19 10:01:00;;;;;;;15.40;2.28;;;6.00;85.00;;;;;;5049154;28;20403;-54
2022/02/19 10:03:27;;;;;;;14.00;2.30;;;6.10;84.70;;;;;;5051696;28;20043;-54
2022/02/19 10:05:55;;;;;;;11.90;2.10;;;6.20;85.10;;;;;;5049073;28;20099;-51
2022/02/19 10:08:22;;;;;;;18.48;2.63;;;6.30;84.80;;;;;;5049203;28;20041;-50
2022/02/19 10:10:49;;;;;;;9.95;1.90;;;6.40;85.30;;;;;;5050276;28;20103;-53
2022/02/19 10:13:16;;;;;;;11.43;2.17;;;6.50;85.30;;;;;;5037381;28;20046;-54
2022/02/19 10:15:42;;;;;;;12.93;2.53;;;6.50;85.00;;;;;;5035597;28;20114;-47
2022/02/19 10:18:09;;;;;;;11.15;2.20;;;6.60;84.50;;;;;;5035549;28;20041;-49
2022/02/19 10:20:36;;;;;;;14.63;3.58;;;6.70;85.00;;;;;;5036611;28;20040;-53
2022/02/19 10:23:03;;;;;;;19.48;2.28;;;6.70;85.00;;;;;;5038936;28;20038;-48
2022/02/19 10:25:32;;;;;;;7.60;2.03;;;6.80;84.60;;;;;;5035614;28;20463;-52
2022/02/19 10:28:04;;;;;;;7.85;1.90;;;6.80;84.80;;;;;;5035480;28;20053;-52
2022/02/19 10:30:31;;;;;;;10.02;2.30;;;6.80;84.50;;;;;;5040250;28;20060;-50
2022/02/19 10:32:57;;;;;;;11.52;2.50;;;6.90;85.20;;;;;;5035269;28;20045;-53
2022/02/19 10:35:24;;;;;;;10.07;2.25;;;7.00;85.00;;;;;;5035377;28;20056;-51
2022/02/19 10:37:51;;;;;;;13.13;2.20;;;7.10;85.00;;;;;;5035268;28;20105;-54
2022/02/19 10:40:18;;;;;;;12.35;2.65;;;7.10;84.80;;;;;;5034993;28;20033;-50
2022/02/19 10:42:45;;;;;;;11.68;2.45;;;7.10;84.70;;;;;;5035240;28;20561;-53
2022/02/19 10:45:11;;;;;;;18.60;2.70;;;7.20;85.40;;;;;;5033791;28;20045;-49
2022/02/19 10:47:38;;;;;;;12.48;2.90;;;7.20;85.50;;;;;;5035083;28;20038;-51
2022/02/19 10:50:05;;;;;;;11.10;2.42;;;7.20;85.10;;;;;;5034330;28;20457;-54
2022/02/19 10:52:36;;;;;;;21.08;3.88;;;7.30;84.70;;;;;;5038657;28;20053;-50
2022/02/19 10:55:03;;;;;;;10.90;3.08;;;7.40;84.70;;;;;;5035056;28;20531;-50
2022/02/19 10:57:30;;;;;;;14.20;2.75;;;7.40;84.90;;;;;;5035051;28;20045;-52
2022/02/19 10:59:57;;;;;;;11.98;2.40;;;7.40;84.80;;;;;;5034409;28;20045;-50
2022/02/19 11:02:24;;;;;;;10.65;2.42;;;7.40;84.90;;;;;;5035649;28;20037;-48
2022/02/19 11:04:50;;;;;;;15.25;2.80;;;7.40;85.40;;;;;;5034541;28;20037;-47
